Time;durP1;ratioP1;P1;durP2;ratioP2;P2;SDS_P1;SDS_P2;PMS_P1;PMS_P2;Temp;Humidity;BMP_temperature;BMP_pressure;BME280_temperature;BME280_humidity;BME280_pressure;Samples;Min_cycle;Max_cycle;Signal;HPM_P1;HPM_P2
2023/03/02 01:37:38;;;;;;;15.90;12.00;;;-2.30;99.90;;;;;;6242619;22;20537;-83
2023/03/02 01:40:11;;;;;;;19.98;15.00;;;-2.30;99.90;;;;;;6219013;23;20199;-83
2023/03/02 01:42:42;;;;;;;23.45;14.45;;;-2.40;99.90;;;;;;6243848;22;20239;-83
2023/03/02 01:45:56;;;;;;;22.08;14.07;;;-2.10;99.90;;;;;;6217171;23;20188;-83
2023/03/02 01:48:35;;;;;;;23.08;11.07;;;-2.10;99.90;;;;;;6096971;23;20175;-83
2023/03/02 01:51:22;;;;;;;20.67;12.35;;;-2.00;99.90;;;;;;6200821;23;20180;-83
2023/03/02 01:53:56;;;;;;;23.00;13.38;;;-2.10;99.90;;;;;;6254553;22;20267;-83
2023/03/02 01:56:35;;;;;;;19.40;11.15;;;-2.10;99.90;;;;;;6217442;23;20172;-83
2023/03/02 01:59:10;;;;;;;14.38;10.68;;;-2.20;99.90;;;;;;6243579;22;20171;-83
2023/03/02 02:01:42;;;;;;;17.13;11.48;;;-2.50;99.90;;;;;;6254482;23;20148;-83
2023/03/02 02:04:17;;;;;;;17.63;14.55;;;-2.60;99.90;;;;;;6243724;22;20203;-82
2023/03/02 02:06:53;;;;;;;26.33;23.80;;;-2.70;99.90;;;;;;6217281;23;20179;-82
2023/03/02 02:09:26;;;;;;;69.88;65.65;;;-2.70;99.90;;;;;;6243619;23;20175;-82
2023/03/02 02:11:57;;;;;;;195.13;186.85;;;-2.80;99.90;;;;;;6244157;23;20238;-83
2023/03/02 02:14:27;;;;;;;313.67;302.60;;;-2.80;99.90;;;;;;6254357;23;20184;-83
2023/03/02 02:16:54;;;;;;;347.15;335.00;;;-2.90;99.90;;;;;;6244190;23;20183;-83
2023/03/02 02:19:39;;;;;;;366.83;353.27;;;-3.00;99.90;;;;;;6254041;23;20172;-82
2023/03/02 02:22:21;;;;;;;398.60;384.15;;;-3.10;99.90;;;;;;6254758;23;20187;-83
2023/03/02 02:24:58;;;;;;;413.17;398.33;;;-3.10;99.90;;;;;;6243955;23;20192;-83
2023/03/02 02:27:32;;;;;;;459.00;442.35;;;-3.20;99.90;;;;;;6217464;23;20247;-83
2023/03/02 02:30:16;;;;;;;502.17;484.05;;;-3.10;99.90;;;;;;6217142;23;20168;-83
2023/03/02 02:32:49;;;;;;;519.53;499.60;;;-3.10;99.90;;;;;;6194019;23;20592;-82
2023/03/02 02:35:23;;;;;;;598.13;574.88;;;-3.20;99.90;;;;;;6254047;22;20192;-83
2023/03/02 02:37:57;;;;;;;586.50;563.58;;;-3.40;99.90;;;;;;6254072;23;20168;-82
2023/03/02 02:40:46;;;;;;;621.05;596.65;;;-3.30;99.90;;;;;;6244074;23;20167;-83
2023/03/02 02:43:20;;;;;;;618.17;593.67;;;-3.20;99.90;;;;;;6243746;23;20678;-83
2023/03/02 02:45:54;;;;;;;670.65;643.05;;;-3.50;99.90;;;;;;6243758;23;20684;-83
2023/03/02 02:48:29;;;;;;;688.20;659.03;;;-3.40;99.90;;;;;;6243323;23;20169;-83
2023/03/02 02:51:01;;;;;;;673.70;644.10;;;-3.40;99.90;;;;;;6243946;23;20643;-83
2023/03/02 02:53:37;;;;;;;735.22;701.38;;;-3.20;99.90;;;;;;6243648;23;20212;-83
2023/03/02 02:56:08;;;;;;;753.78;718.97;;;-3.30;99.90;;;;;;6242861;23;20191;-83
2023/03/02 02:58:48;;;;;;;733.45;700.17;;;-3.30;99.90;;;;;;6216920;23;20647;-83
2023/03/02 03:01:19;;;;;;;738.63;703.75;;;-3.40;99.90;;;;;;6242830;23;20199;-82
2023/03/02 03:03:55;;;;;;;760.63;724.60;;;-3.40;99.90;;;;;;6243663;23;20161;-83
2023/03/02 03:06:36;;;;;;;760.05;723.58;;;-3.40;99.90;;;;;;6217228;23;20248;-83
2023/03/02 03:09:10;;;;;;;801.25;759.10;;;-3.30;99.90;;;;;;6217008;23;20536;-83
2023/03/02 03:17:11;;;;;;;699.60;668.20;;;-3.40;99.90;;;;;;6242613;22;20624;-84
2023/03/02 03:19:40;;;;;;;676.72;645.42;;;-3.20;99.90;;;;;;6244165;23;20506;-83
2023/03/02 03:22:15;;;;;;;652.97;624.50;;;-3.10;99.90;;;;;;6219093;23;20226;-84
2023/03/02 03:24:49;;;;;;;694.50;664.20;;;-3.20;99.90;;;;;;6245268;23;20184;-84
2023/03/02 03:27:21;;;;;;;715.13;681.92;;;-3.10;99.90;;;;;;6256214;23;20176;-85
2023/03/02 03:29:50;;;;;;;722.95;687.65;;;-3.20;99.90;;;;;;6255621;23;20562;-84
2023/03/02 03:32:23;;;;;;;661.83;632.58;;;-3.20;99.90;;;;;;6255590;23;20165;-84
2023/03/02 03:34:51;;;;;;;443.88;426.95;;;-3.10;99.90;;;;;;6218944;23;20500;-84
2023/03/02 03:37:23;;;;;;;315.20;304.58;;;-3.00;99.90;;;;;;6255799;23;20561;-85
2023/03/02 03:39:56;;;;;;;100.80;96.05;;;-3.00;99.90;;;;;;6229831;23;20153;-85
2023/03/02 03:42:28;;;;;;;31.45;29.17;;;-3.10;99.90;;;;;;6256141;23;20253;-84
2023/03/02 03:45:01;;;;;;;19.08;16.73;;;-2.70;99.90;;;;;;6245054;23;20192;-84
2023/03/02 03:47:40;;;;;;;15.30;10.15;;;-2.90;99.90;;;;;;6255686;23;20149;-84
2023/03/02 03:50:10;;;;;;;18.13;10.73;;;-2.60;99.90;;;;;;6218660;23;20172;-84
2023/03/02 03:52:39;;;;;;;14.38;7.00;;;-2.50;99.90;;;;;;6245392;23;20184;-84
2023/03/02 03:55:12;;;;;;;13.32;7.75;;;-2.60;99.90;;;;;;6218589;23;20220;-84
2023/03/02 03:57:44;;;;;;;24.05;9.15;;;-2.40;99.90;;;;;;6218606;23;20168;-84
2023/03/02 04:00:21;;;;;;;14.90;10.00;;;-2.30;99.90;;;;;;6245275;23;20486;-85
2023/03/02 04:02:56;;;;;;;15.80;8.60;;;-2.40;99.90;;;;;;6218812;23;20172;-85
2023/03/02 04:05:25;;;;;;;21.50;10.38;;;-2.30;99.90;;;;;;6245045;23;20246;-84
2023/03/02 04:07:56;;;;;;;16.17;10.73;;;-2.60;99.90;;;;;;6245166;23;20164;-84
2023/03/02 04:10:26;;;;;;;21.58;14.50;;;-2.80;99.90;;;;;;6218412;23;20168;-84
2023/03/02 04:13:07;;;;;;;34.55;31.77;;;-2.90;99.90;;;;;;6218628;23;20191;-84
2023/03/02 04:15:41;;;;;;;53.10;50.00;;;-3.10;99.90;;;;;;6218435;23;20250;-87
2023/03/02 04:18:11;;;;;;;34.13;31.83;;;-3.00;99.90;;;;;;6244764;23;20527;-85
2023/03/02 04:20:38;;;;;;;18.75;16.77;;;-3.00;99.90;;;;;;6255196;23;20206;-82
2023/03/02 04:23:06;;;;;;;19.30;12.57;;;-2.90;99.90;;;;;;6245752;23;20164;-86
2023/03/02 04:25:35;;;;;;;20.95;10.50;;;-2.90;99.90;;;;;;6244675;23;20271;-85
2023/03/02 04:28:08;;;;;;;17.33;10.15;;;-2.80;99.90;;;;;;6254682;23;20923;-85
2023/03/02 04:30:42;;;;;;;19.30;10.20;;;-2.60;99.90;;;;;;6244765;23;20157;-84
2023/03/02 04:33:15;;;;;;;14.98;8.68;;;-2.80;99.90;;;;;;6217334;23;20188;-85
2023/03/02 04:36:02;;;;;;;12.27;7.22;;;-2.90;99.90;;;;;;6245113;23;20628;-85
2023/03/02 04:38:31;;;;;;;27.13;9.38;;;-2.80;99.90;;;;;;6217700;23;20230;-86
2023/03/02 04:41:15;;;;;;;13.55;7.40;;;-2.80;99.90;;;;;;6218117;23;20169;-85
2023/03/02 04:43:52;;;;;;;17.92;8.35;;;-2.90;99.90;;;;;;6218308;23;20539;-86
2023/03/02 04:46:33;;;;;;;16.70;9.02;;;-2.80;99.90;;;;;;6243361;23;20175;-85
2023/03/02 04:49:09;;;;;;;16.00;8.57;;;-2.90;99.90;;;;;;6217849;23;20176;-87
2023/03/02 04:51:45;;;;;;;20.75;8.85;;;-2.90;99.90;;;;;;6218373;23;20172;-86
2023/03/02 04:54:20;;;;;;;16.80;9.38;;;-2.90;99.90;;;;;;6244542;23;20267;-86
2023/03/02 04:56:52;;;;;;;20.80;12.10;;;-3.00;99.90;;;;;;6255117;23;20163;-86
2023/03/02 04:59:26;;;;;;;18.13;10.25;;;-3.20;99.90;;;;;;6244877;23;20149;-87
2023/03/02 05:01:58;;;;;;;26.27;12.82;;;-3.40;99.90;;;;;;6245831;23;20160;-92
2023/03/02 05:04:28;;;;;;;17.98;13.38;;;-3.40;99.90;;;;;;6244351;23;20191;-87
2023/03/02 05:06:56;;;;;;;21.60;14.52;;;-3.50;99.90;;;;;;6218046;23;20173;-87
2023/03/02 05:09:29;;;;;;;19.00;16.65;;;-3.50;99.90;;;;;;6217295;23;20210;-87
2023/03/02 05:11:57;;;;;;;24.60;11.50;;;-3.20;99.90;;;;;;6244462;23;20173;-87
2023/03/02 05:14:25;;;;;;;8.02;6.03;;;-3.10;99.90;;;;;;6254582;23;20572;-87
2023/03/02 05:16:53;;;;;;;27.00;11.18;;;-2.90;99.90;;;;;;6245078;22;20180;-86
2023/03/02 05:19:24;;;;;;;16.55;8.70;;;-2.80;99.90;;;;;;6254864;23;20192;-90
2023/03/02 05:34:56;;;;;;;56.25;52.67;;;-3.40;99.90;;;;;;6245463;22;20215;-87
2023/03/02 05:37:29;;;;;;;115.70;110.47;;;-3.50;99.90;;;;;;6244053;23;20211;-88
2023/03/02 05:39:59;;;;;;;130.38;124.47;;;-3.50;99.90;;;;;;6243395;23;20222;-88
2023/03/02 05:42:28;;;;;;;175.10;167.82;;;-3.50;99.90;;;;;;6244336;23;20168;-87
2023/03/02 05:44:55;;;;;;;247.88;238.73;;;-3.50;99.90;;;;;;6254815;23;20193;-87
2023/03/02 05:47:24;;;;;;;347.05;334.58;;;-3.70;99.90;;;;;;6244581;23;20176;-85
2023/03/02 05:49:55;;;;;;;357.60;344.65;;;-3.60;99.90;;;;;;6255128;22;20194;-91
2023/03/02 05:52:23;;;;;;;417.25;401.75;;;-3.70;99.90;;;;;;6255774;23;20164;-88
2023/03/02 05:54:54;;;;;;;478.73;460.25;;;-3.70;99.90;;;;;;6255441;23;20192;-92
2023/03/02 06:05:29;;;;;;;612.95;587.00;;;-3.80;99.90;;;;;;6246076;22;20540;-90
2023/03/02 06:08:12;;;;;;;625.78;599.17;;;-3.80;99.90;;;;;;6257662;23;20541;-88
2023/03/02 06:10:40;;;;;;;657.08;628.55;;;-3.90;99.90;;;;;;6247442;23;20233;-92
2023/03/02 06:13:15;;;;;;;669.25;639.50;;;-4.00;99.90;;;;;;6257679;23;20259;-91
2023/03/02 06:15:51;;;;;;;670.50;640.65;;;-4.00;99.90;;;;;;6247032;23;20502;-91
2023/03/02 06:18:18;;;;;;;704.70;672.50;;;-3.90;99.90;;;;;;6257186;23;20198;-91
2023/03/02 06:20:46;;;;;;;723.20;689.10;;;-3.60;99.90;;;;;;6256574;23;20225;-90
2023/03/02 06:23:15;;;;;;;765.88;726.80;;;-3.90;99.90;;;;;;6257165;23;20423;-85
2023/03/02 06:25:47;;;;;;;759.45;720.85;;;-3.90;99.90;;;;;;6254983;23;20184;-82
2023/03/02 06:28:18;;;;;;;752.80;714.83;;;-3.80;99.90;;;;;;6254276;23;20168;-82
2023/03/02 06:30:47;;;;;;;771.15;730.97;;;-3.70;99.90;;;;;;6254593;23;20203;-81
2023/03/02 06:33:20;;;;;;;783.22;742.70;;;-3.60;99.90;;;;;;6244056;23;20188;-85
2023/03/02 06:35:49;;;;;;;787.03;744.42;;;-3.60;99.90;;;;;;6243709;23;20584;-84
2023/03/02 06:38:21;;;;;;;794.35;752.08;;;-3.50;99.90;;;;;;6243113;23;20226;-83
2023/03/02 06:40:48;;;;;;;774.75;734.17;;;-3.40;99.90;;;;;;6244005;23;20183;-83
2023/03/02 06:43:17;;;;;;;781.53;739.25;;;-3.30;99.90;;;;;;6217091;23;20235;-82
2023/03/02 06:45:47;;;;;;;783.47;741.95;;;-3.40;99.90;;;;;;6216713;23;20203;-83
2023/03/02 06:48:16;;;;;;;755.63;716.45;;;-3.50;99.90;;;;;;6216839;23;20700;-83
2023/03/02 06:50:48;;;;;;;749.65;711.15;;;-3.40;99.90;;;;;;6243597;23;20219;-83
2023/03/02 06:53:22;;;;;;;777.60;737.13;;;-3.30;99.90;;;;;;6243484;23;20168;-84
2023/03/02 06:55:53;;;;;;;761.60;722.47;;;-3.10;99.90;;;;;;6245821;23;20195;-81
2023/03/02 06:58:28;;;;;;;775.75;733.40;;;-3.20;99.90;;;;;;6218247;23;20545;-87
2023/03/02 07:00:58;;;;;;;774.53;733.67;;;-3.10;99.90;;;;;;6245968;23;20191;-86
2023/03/02 07:03:26;;;;;;;785.35;743.05;;;-3.20;99.90;;;;;;6246409;23;20243;-85
2023/03/02 07:05:58;;;;;;;773.90;732.33;;;-3.00;99.90;;;;;;6245686;23;20275;-87
2023/03/02 07:08:28;;;;;;;796.85;753.65;;;-2.90;99.90;;;;;;6245415;23;20681;-86
2023/03/02 07:10:58;;;;;;;800.08;755.65;;;-3.00;99.90;;;;;;6255407;23;20657;-85
2023/03/02 07:16:17;;;;;;;817.03;770.80;;;-2.80;99.90;;;;;;6243296;23;20187;-85
2023/03/02 07:18:51;;;;;;;831.28;784.20;;;-2.70;99.90;;;;;;6218829;23;20243;-86
2023/03/02 07:47:20;;;;;;;732.42;694.10;;;-1.60;99.90;;;;;;6246844;22;20211;-84
2023/03/02 08:20:59;;;;;;;21.92;10.95;;;0.70;99.90;;;;;;6246583;22;20279;-84
2023/03/02 08:39:04;;;;;;;14.83;8.43;;;1.60;99.70;;;;;;6197006;22;20737;-86
2023/03/02 08:46:42;;;;;;;21.73;10.73;;;1.90;99.00;;;;;;6266834;22;20517;-86
2023/03/02 08:49:28;;;;;;;;;;;;;;;;;;;;;
2023/03/02 08:51:55;;;;;;;13.23;7.10;;;2.30;95.40;;;;;;6278990;22;20442;-86
2023/03/02 08:54:31;;;;;;;23.73;12.27;;;2.50;93.70;;;;;;6245384;22;20478;-86
2023/03/02 08:59:39;;;;;;;22.33;11.30;;;2.70;92.30;;;;;;6269224;22;20450;-86
2023/03/02 09:04:49;;;;;;;14.30;8.20;;;3.00;91.40;;;;;;6263685;22;20965;-86
2023/03/02 09:07:25;;;;;;;15.63;9.03;;;3.10;90.40;;;;;;6285590;22;20413;-85
2023/03/02 09:10:08;;;;;;;14.80;8.73;;;3.30;90.50;;;;;;6285401;22;20941;-86
2023/03/02 09:12:38;;;;;;;15.70;9.20;;;3.40;87.60;;;;;;6275464;22;20427;-86
2023/03/02 09:17:38;;;;;;;14.90;8.60;;;4.00;87.30;;;;;;6272877;22;20503;-85
2023/03/02 09:20:08;;;;;;;14.47;8.17;;;4.40;79.20;;;;;;6284844;22;20414;-86
2023/03/02 09:22:36;;;;;;;17.00;8.80;;;4.90;76.90;;;;;;6285959;22;20936;-86
2023/03/02 09:25:09;;;;;;;12.87;8.30;;;5.30;76.10;;;;;;6284548;22;21023;-85
2023/03/02 09:27:38;;;;;;;17.47;8.40;;;5.80;72.50;;;;;;6284738;22;20436;-86
2023/03/02 09:30:09;;;;;;;13.00;7.77;;;6.00;68.50;;;;;;6284792;22;20433;-86
2023/03/02 09:35:07;;;;;;;13.40;8.00;;;6.70;61.50;;;;;;6273076;22;20541;-86
2023/03/02 09:37:37;;;;;;;11.57;7.50;;;7.00;61.80;;;;;;6284884;22;20254;-86
2023/03/02 09:40:15;;;;;;;13.67;8.27;;;7.30;58.40;;;;;;6285175;22;20418;-86
2023/03/02 09:43:02;;;;;;;14.13;8.30;;;7.60;52.80;;;;;;6285452;22;20414;-86
2023/03/02 09:45:44;;;;;;;16.03;7.87;;;7.50;51.00;;;;;;6285781;22;20458;-86
2023/03/02 09:48:21;;;;;;;11.73;6.63;;;7.70;51.50;;;;;;6285568;22;20414;-86
2023/03/02 09:51:09;;;;;;;14.40;8.10;;;7.90;52.30;;;;;;6285394;22;20933;-86
2023/03/02 09:54:11;;;;;;;14.10;7.87;;;8.20;47.90;;;;;;6285713;22;20509;-86
2023/03/02 09:56:50;;;;;;;15.33;7.60;;;8.60;46.40;;;;;;6286566;22;20460;-84
2023/03/02 09:59:26;;;;;;;16.63;9.03;;;8.60;43.60;;;;;;6284592;22;20980;-84
2023/03/02 10:02:05;;;;;;;15.90;8.27;;;8.60;43.70;;;;;;6284676;22;20410;-84
2023/03/02 10:04:39;;;;;;;12.30;6.70;;;8.60;39.80;;;;;;6284532;22;20430;-84
2023/03/02 10:07:13;;;;;;;15.93;8.37;;;8.60;37.40;;;;;;6284800;22;20416;-83
2023/03/02 10:09:44;;;;;;;16.80;7.80;;;8.80;37.70;;;;;;6284982;22;20397;-84
2023/03/02 10:12:40;;;;;;;13.60;7.80;;;9.50;35.80;;;;;;6284859;22;20398;-84
2023/03/02 10:20:26;;;;;;;14.70;8.23;;;9.90;30.90;;;;;;6273898;22;20425;-85
2023/03/02 10:22:59;;;;;;;14.03;7.87;;;10.00;26.50;;;;;;6274915;22;20402;-85
2023/03/02 10:25:36;;;;;;;12.60;7.43;;;10.50;26.20;;;;;;6284530;22;20509;-82
2023/03/02 10:28:14;;;;;;;13.07;7.80;;;10.60;25.80;;;;;;6284448;22;20421;-82
2023/03/02 10:30:45;;;;;;;17.10;9.17;;;10.60;26.20;;;;;;6284283;22;20484;-85
2023/03/02 10:33:15;;;;;;;12.27;6.50;;;10.70;27.10;;;;;;6284447;22;20415;-85
2023/03/02 10:35:47;;;;;;;14.20;8.00;;;10.60;22.00;;;;;;6284232;22;20513;-85
2023/03/02 10:38:19;;;;;;;12.77;7.33;;;11.40;20.80;;;;;;6284445;22;20417;-82
2023/03/02 10:40:55;;;;;;;17.77;9.00;;;10.80;20.40;;;;;;6284652;22;20442;-82
2023/03/02 10:43:32;;;;;;;15.20;7.73;;;11.20;20.70;;;;;;6284856;22;20408;-82
2023/03/02 10:46:06;;;;;;;12.37;8.07;;;11.40;20.80;;;;;;6285639;22;20436;-82
2023/03/02 10:48:37;;;;;;;13.30;8.07;;;11.90;19.40;;;;;;6284852;22;20384;-83
2023/03/02 10:51:24;;;;;;;16.43;8.40;;;11.70;14.90;;;;;;6284570;22;20406;-84
2023/03/02 10:54:02;;;;;;;10.33;6.43;;;12.20;18.40;;;;;;6284546;22;20443;-82
2023/03/02 10:56:30;;;;;;;11.77;6.73;;;11.70;13.80;;;;;;6283294;22;20426;-81
2023/03/02 10:59:02;;;;;;;15.47;8.30;;;11.50;13.60;;;;;;6283283;22;20404;-80
2023/03/02 11:01:37;;;;;;;14.40;8.33;;;12.30;16.50;;;;;;6275590;22;20398;-81
2023/03/02 11:04:19;;;;;;;15.27;8.50;;;11.80;13.80;;;;;;6284356;22;20406;-82
2023/03/02 11:06:50;;;;;;;17.23;10.70;;;11.80;16.10;;;;;;6284763;22;20393;-82
2023/03/02 11:09:17;;;;;;;14.77;7.90;;;11.30;17.10;;;;;;6284223;22;20880;-82
2023/03/02 11:11:59;;;;;;;12.93;6.33;;;11.50;19.00;;;;;;6284198;22;20438;-82
2023/03/02 11:14:29;;;;;;;17.30;8.60;;;11.40;17.50;;;;;;6282968;22;20438;-82
2023/03/02 11:17:18;;;;;;;12.70;7.30;;;11.20;16.00;;;;;;6284415;22;20441;-82
2023/03/02 11:19:53;;;;;;;15.50;8.50;;;11.30;18.20;;;;;;6284230;22;20921;-82
2023/03/02 11:22:36;;;;;;;15.37;7.03;;;11.20;18.50;;;;;;6284777;22;20499;-82
2023/03/02 11:25:14;;;;;;;18.40;7.80;;;11.20;18.50;;;;;;6284559;22;20483;-82
2023/03/02 11:48:22;;;;;;;12.10;5.60;;;11.40;16.40;;;;;;6249604;22;20441;-84
2023/03/02 11:51:02;;;;;;;15.30;8.83;;;11.30;14.80;;;;;;6245252;23;20973;-83
2023/03/02 11:53:52;;;;;;;;;;;;;;;;;;;;;
2023/03/02 12:06:53;;;;;;;13.73;7.80;;;11.80;15.10;;;;;;6267152;22;20477;-84
2023/03/02 12:09:33;;;;;;;12.13;6.83;;;11.50;13.80;;;;;;6285117;22;20440;-83
2023/03/02 12:12:47;;;;;;;15.70;5.83;;;11.80;13.30;;;;;;6285804;22;20417;-84
2023/03/02 12:20:40;;;;;;;11.97;7.00;;;11.40;13.50;;;;;;6270970;22;20431;-84
2023/03/02 12:23:25;;;;;;;16.93;7.50;;;11.30;15.10;;;;;;6285571;22;20411;-84
2023/03/02 12:26:27;;;;;;;12.00;6.53;;;11.60;15.60;;;;;;6285477;22;20434;-83
2023/03/02 12:29:04;;;;;;;15.97;7.77;;;11.80;10.50;;;;;;6285221;22;20415;-83
2023/03/02 12:34:41;;;;;;;13.03;8.10;;;11.90;10.90;;;;;;6269759;22;20475;-82
2023/03/02 12:37:18;;;;;;;18.17;8.13;;;12.10;8.80;;;;;;6272035;22;20858;-83
2023/03/02 12:45:24;;;;;;;13.47;6.30;;;12.40;8.80;;;;;;6269263;22;20940;-83
2023/03/02 12:48:24;;;;;;;;;;;;;;;;;;;;;
2023/03/02 12:55:56;;;;;;;11.10;6.00;;;12.80;5.80;;;;;;6257485;22;20539;-82
2023/03/02 12:58:31;;;;;;;9.50;4.87;;;12.70;3.10;;;;;;6281384;22;20414;-82
2023/03/02 13:01:01;;;;;;;9.73;5.27;;;12.60;4.80;;;;;;6284492;22;20982;-82
2023/03/02 13:03:34;;;;;;;10.77;6.07;;;13.10;4.90;;;;;;6285829;22;20820;-84
2023/03/02 13:06:21;;;;;;;14.50;6.17;;;12.60;5.70;;;;;;6284962;22;20440;-83
2023/03/02 13:11:27;;;;;;;14.43;8.30;;;12.90;7.80;;;;;;6264168;22;20438;-83
2023/03/02 13:14:04;;;;;;;10.17;5.27;;;13.20;6.10;;;;;;6248714;22;20408;-82
2023/03/02 13:16:41;;;;;;;13.90;6.43;;;13.20;3.60;;;;;;6284446;22;20432;-82
2023/03/02 13:19:21;;;;;;;11.87;6.23;;;13.50;1.00;;;;;;6284358;22;20486;-82
2023/03/02 13:40:04;;;;;;;9.70;5.30;;;13.10;1.00;;;;;;6271628;22;20425;-85
2023/03/02 13:42:43;;;;;;;8.53;4.40;;;12.90;3.20;;;;;;6274594;22;20423;-86
2023/03/02 13:45:25;;;;;;;12.90;6.33;;;12.20;2.50;;;;;;6285327;22;20520;-85
2023/03/02 13:47:54;;;;;;;12.57;6.50;;;11.70;3.50;;;;;;6259775;22;20394;-86
2023/03/02 13:50:25;;;;;;;11.00;5.47;;;11.50;6.10;;;;;;6247843;22;20461;-86
2023/03/02 13:52:55;;;;;;;10.60;4.77;;;11.20;4.20;;;;;;6275717;22;20414;-87
2023/03/02 13:55:31;;;;;;;12.33;6.57;;;11.20;9.20;;;;;;6285723;22;20426;-87
2023/03/02 13:57:59;;;;;;;8.93;5.40;;;11.10;6.00;;;;;;6285117;22;20414;-83
2023/03/02 14:00:31;;;;;;;8.67;4.50;;;10.90;7.80;;;;;;6275074;22;20414;-82
2023/03/02 14:03:01;;;;;;;10.00;3.83;;;11.00;6.20;;;;;;6285444;22;20777;-84
2023/03/02 14:05:32;;;;;;;15.83;5.80;;;11.00;10.80;;;;;;6285135;22;20946;-83
2023/03/02 14:08:01;;;;;;;10.23;4.80;;;11.10;11.70;;;;;;6248775;22;20418;-83
2023/03/02 14:10:30;;;;;;;12.50;6.20;;;10.90;6.90;;;;;;6285222;22;20406;-84
2023/03/02 14:13:07;;;;;;;12.63;5.70;;;11.00;9.50;;;;;;6275025;22;20438;-84
2023/03/02 14:15:44;;;;;;;7.60;3.73;;;11.10;10.90;;;;;;6273853;22;20426;-85
2023/03/02 14:18:32;;;;;;;11.17;4.27;;;11.00;8.40;;;;;;6274597;22;20398;-84
2023/03/02 14:20:59;;;;;;;11.00;3.60;;;11.00;7.80;;;;;;6248100;22;20414;-84
2023/03/02 14:23:28;;;;;;;11.15;5.78;;;11.10;7.20;;;;;;6247114;22;20410;-85
2023/03/02 14:25:59;;;;;;;10.80;5.87;;;11.10;8.20;;;;;;6274416;22;20651;-84
2023/03/02 14:28:38;;;;;;;13.97;4.00;;;10.90;7.80;;;;;;6245411;22;20418;-84
2023/03/02 14:31:08;;;;;;;9.10;4.90;;;11.00;9.10;;;;;;6274496;22;20409;-84
2023/03/02 14:33:39;;;;;;;8.47;3.50;;;10.90;5.70;;;;;;6274394;22;20422;-84
2023/03/02 14:36:12;;;;;;;7.90;3.63;;;10.90;6.60;;;;;;6274214;22;20434;-84
2023/03/02 14:38:42;;;;;;;14.13;5.50;;;10.90;8.40;;;;;;6274738;22;20398;-84
2023/03/02 14:41:22;;;;;;;7.03;3.97;;;11.00;8.80;;;;;;6247403;22;20448;-84
2023/03/02 14:43:53;;;;;;;11.50;5.33;;;11.10;5.80;;;;;;6285023;22;20391;-85
2023/03/02 14:46:23;;;;;;;9.50;5.10;;;11.00;8.60;;;;;;6247503;22;20440;-84
2023/03/02 14:48:55;;;;;;;9.80;3.93;;;11.10;8.30;;;;;;6247118;22;20436;-83
2023/03/02 14:51:26;;;;;;;10.70;5.33;;;11.10;10.00;;;;;;6274971;22;20422;-84
2023/03/02 14:54:03;;;;;;;8.73;4.10;;;11.20;11.10;;;;;;6284846;22;20414;-84
2023/03/02 14:56:38;;;;;;;8.70;4.87;;;11.00;10.40;;;;;;6247710;22;20434;-83
2023/03/02 14:59:05;;;;;;;8.90;3.80;;;11.00;12.70;;;;;;6248525;22;20398;-83
2023/03/02 15:01:32;;;;;;;8.93;5.97;;;11.00;7.20;;;;;;6247599;22;20472;-83
2023/03/02 15:04:03;;;;;;;11.50;4.20;;;10.90;8.00;;;;;;6274675;22;20438;-84
2023/03/02 15:06:37;;;;;;;21.20;5.57;;;11.00;6.90;;;;;;6258439;22;20459;-84
2023/03/02 15:09:14;;;;;;;9.87;5.30;;;11.00;8.50;;;;;;6284416;22;20393;-84
2023/03/02 15:11:44;;;;;;;6.63;3.20;;;11.40;6.00;;;;;;6247659;22;20504;-84
2023/03/02 15:14:15;;;;;;;7.53;3.67;;;11.80;4.30;;;;;;6247195;22;20434;-84
2023/03/02 15:16:44;;;;;;;8.23;4.30;;;12.10;3.00;;;;;;6249404;22;20417;-84
2023/03/02 15:19:11;;;;;;;10.03;5.33;;;12.70;6.00;;;;;;6286287;22;20515;-84
2023/03/02 15:21:43;;;;;;;10.73;4.60;;;13.10;4.50;;;;;;6249317;22;20516;-84
2023/03/02 15:24:11;;;;;;;15.63;4.43;;;12.90;1.20;;;;;;6250552;22;20895;-84
2023/03/02 15:26:39;;;;;;;11.20;4.10;;;12.80;1.00;;;;;;6275927;22;20434;-84
2023/03/02 15:29:08;;;;;;;10.50;4.87;;;12.50;1.00;;;;;;6248680;22;20418;-84
2023/03/02 15:31:35;;;;;;;9.93;5.00;;;12.10;1.60;;;;;;6249427;22;20414;-84
2023/03/02 15:34:05;;;;;;;9.40;4.30;;;11.90;2.50;;;;;;6276728;22;20464;-84
2023/03/02 15:36:32;;;;;;;7.73;4.17;;;11.80;2.40;;;;;;6249498;22;20736;-83
2023/03/02 15:39:01;;;;;;;8.87;5.07;;;11.60;3.00;;;;;;6275476;22;20501;-84
2023/03/02 15:41:30;;;;;;;9.65;4.47;;;11.40;4.30;;;;;;6275351;22;20411;-84
2023/03/02 15:43:58;;;;;;;10.67;5.10;;;11.50;4.70;;;;;;6276288;22;20248;-83
2023/03/02 15:46:28;;;;;;;8.57;4.17;;;11.50;6.10;;;;;;6248736;22;20430;-84
2023/03/02 15:48:58;;;;;;;11.73;5.13;;;11.40;5.60;;;;;;6275436;22;20832;-83
2023/03/02 15:51:25;;;;;;;11.70;5.03;;;11.10;6.30;;;;;;6275282;22;20951;-83
2023/03/02 15:53:55;;;;;;;10.60;5.07;;;10.90;5.70;;;;;;6248727;22;20171;-83
2023/03/02 15:56:23;;;;;;;8.37;3.53;;;10.80;5.60;;;;;;6286175;22;20483;-84
2023/03/02 15:58:51;;;;;;;6.70;3.67;;;10.60;5.50;;;;;;6274812;22;20971;-83
2023/03/02 16:01:22;;;;;;;8.87;4.23;;;10.50;5.40;;;;;;6247732;22;20757;-83
2023/03/02 16:03:54;;;;;;;9.80;5.20;;;10.40;7.60;;;;;;6248275;22;20802;-83
2023/03/02 16:06:23;;;;;;;9.80;3.87;;;10.20;11.20;;;;;;6248300;22;20488;-83
2023/03/02 16:08:59;;;;;;;8.30;4.23;;;10.10;8.90;;;;;;6275236;22;20414;-84
2023/03/02 16:11:29;;;;;;;7.03;3.70;;;10.10;8.20;;;;;;6275966;22;20395;-83
2023/03/02 16:14:00;;;;;;;9.87;4.30;;;10.00;8.50;;;;;;6248919;22;20490;-83
2023/03/02 16:16:28;;;;;;;9.43;2.80;;;10.00;10.00;;;;;;6275697;22;20438;-83
2023/03/02 16:19:02;;;;;;;11.47;5.50;;;9.90;11.60;;;;;;6275002;22;20410;-83
2023/03/02 16:21:32;;;;;;;6.40;3.87;;;9.80;13.20;;;;;;6275455;22;20402;-83
2023/03/02 16:24:03;;;;;;;14.80;4.80;;;9.80;12.20;;;;;;6273885;22;20925;-83
2023/03/02 16:26:43;;;;;;;8.63;4.07;;;9.90;13.20;;;;;;6273847;22;20930;-83
2023/03/02 16:29:14;;;;;;;7.17;3.83;;;9.90;13.40;;;;;;6284521;22;20420;-82
2023/03/02 16:31:42;;;;;;;8.07;3.97;;;10.10;12.60;;;;;;6275517;22;20757;-82
2023/03/02 16:34:10;;;;;;;8.90;4.10;;;10.00;15.60;;;;;;6275365;22;20798;-82
2023/03/02 16:36:40;;;;;;;4.97;2.40;;;9.80;15.00;;;;;;6247782;22;20402;-82
2023/03/02 16:39:08;;;;;;;11.33;4.60;;;9.70;13.10;;;;;;6274912;22;20438;-82
2023/03/02 16:41:36;;;;;;;8.83;4.20;;;9.60;14.20;;;;;;6275526;22;20468;-83
2023/03/02 16:44:03;;;;;;;8.90;4.53;;;9.50;14.20;;;;;;6275487;22;20497;-82
2023/03/02 16:46:35;;;;;;;10.77;4.80;;;9.40;14.80;;;;;;6285376;22;20541;-83
2023/03/02 16:49:05;;;;;;;8.50;3.33;;;9.40;15.70;;;;;;6249463;22;20401;-83
2023/03/02 16:51:37;;;;;;;8.37;4.03;;;9.20;15.10;;;;;;6275416;22;20718;-82
2023/03/02 16:54:06;;;;;;;7.23;3.00;;;9.10;16.00;;;;;;6248105;22;20419;-82
2023/03/02 16:56:34;;;;;;;7.60;3.60;;;9.10;16.20;;;;;;6285523;22;20417;-82
2023/03/02 16:59:01;;;;;;;11.13;6.30;;;9.00;16.80;;;;;;6275461;22;20501;-82
2023/03/02 17:01:28;;;;;;;10.33;4.60;;;8.90;17.30;;;;;;6274324;22;20493;-83
2023/03/02 17:04:00;;;;;;;7.70;3.20;;;8.60;17.70;;;;;;6275786;22;20410;-82
2023/03/02 17:09:12;;;;;;;11.13;5.90;;;8.40;18.90;;;;;;6274851;22;20773;-82
2023/03/02 17:11:40;;;;;;;14.33;4.80;;;8.20;19.40;;;;;;6274739;22;21039;-82
2023/03/02 17:14:10;;;;;;;16.03;4.07;;;8.00;20.80;;;;;;6248133;22;20724;-83
2023/03/02 17:16:41;;;;;;;9.97;4.20;;;7.90;21.30;;;;;;6248405;22;20407;-82
2023/03/02 17:19:16;;;;;;;7.03;3.60;;;7.70;22.30;;;;;;6248291;22;20410;-83
2023/03/02 17:21:44;;;;;;;7.23;3.90;;;7.50;23.50;;;;;;6250659;22;20448;-83
2023/03/02 17:24:12;;;;;;;6.40;3.07;;;7.30;23.80;;;;;;6274886;22;20799;-81
2023/03/02 17:26:40;;;;;;;13.57;5.30;;;7.40;24.20;;;;;;6247060;22;20414;-81
2023/03/02 17:29:09;;;;;;;8.63;4.80;;;7.20;25.60;;;;;;6275393;22;20178;-83
2023/03/02 17:31:37;;;;;;;13.40;5.67;;;6.90;26.80;;;;;;6247482;22;20820;-84
2023/03/02 17:34:07;;;;;;;10.33;5.83;;;6.50;32.80;;;;;;6272868;22;20488;-85
2023/03/02 17:36:34;;;;;;;12.60;5.93;;;6.30;34.50;;;;;;6275766;22;20414;-83
2023/03/02 17:39:03;;;;;;;12.63;7.97;;;6.00;37.00;;;;;;6274616;22;20421;-82
2023/03/02 17:41:35;;;;;;;20.00;8.77;;;5.70;41.90;;;;;;6274995;22;20424;-82
2023/03/02 17:44:04;;;;;;;18.80;8.20;;;5.10;49.30;;;;;;6285476;22;21100;-86
2023/03/02 17:46:34;;;;;;;13.67;7.50;;;4.90;53.20;;;;;;6284056;22;20484;-79
2023/03/02 17:49:08;;;;;;;15.90;8.80;;;4.90;57.60;;;;;;6274951;22;20505;-86
2023/03/02 23:05:33;;;;;;;37.20;20.50;;;-0.70;99.90;;;;;;6259809;22;20195;-92
2023/03/02 23:08:27;;;;;;;;;;;;;;;;;;;;;
